sensor_id;sensor_type;location;lat;lon;timestamp;temperature;humidity
81311;DHT22;70779;52.506;5.492;2024-02-28T00:00:29;6.50;68.00
81311;DHT22;70779;52.506;5.492;2024-02-28T00:02:55;6.50;68.00
81311;DHT22;70779;52.506;5.492;2024-02-28T00:05:21;6.50;68.00
81311;DHT22;70779;52.506;5.492;2024-02-28T00:07:47;6.50;68.10
81311;DHT22;70779;52.506;5.492;2024-02-28T00:10:14;6.50;68.00
81311;DHT22;70779;52.506;5.492;2024-02-28T00:12:40;6.50;68.10
81311;DHT22;70779;52.506;5.492;2024-02-28T00:15:06;6.50;68.00
81311;DHT22;70779;52.506;5.492;2024-02-28T00:17:40;6.50;67.80
81311;DHT22;70779;52.506;5.492;2024-02-28T00:20:09;6.40;67.60
81311;DHT22;70779;52.506;5.492;2024-02-28T00:22:36;6.30;67.60
81311;DHT22;70779;52.506;5.492;2024-02-28T00:25:03;6.20;67.50
81311;DHT22;70779;52.506;5.492;2024-02-28T00:27:31;6.00;67.60
81311;DHT22;70779;52.506;5.492;2024-02-28T00:29:57;5.90;67.70
81311;DHT22;70779;52.506;5.492;2024-02-28T00:32:23;5.70;67.80
81311;DHT22;70779;52.506;5.492;2024-02-28T00:34:49;5.60;67.90
81311;DHT22;70779;52.506;5.492;2024-02-28T00:37:15;5.50;68.00
81311;DHT22;70779;52.506;5.492;2024-02-28T00:39:43;5.40;68.00
81311;DHT22;70779;52.506;5.492;2024-02-28T00:42:09;5.30;68.20
81311;DHT22;70779;52.506;5.492;2024-02-28T00:44:35;5.30;68.40
81311;DHT22;70779;52.506;5.492;2024-02-28T00:47:01;5.10;68.50
81311;DHT22;70779;52.506;5.492;2024-02-28T00:49:27;5.10;68.60
81311;DHT22;70779;52.506;5.492;2024-02-28T00:51:53;5.00;68.70
81311;DHT22;70779;52.506;5.492;2024-02-28T00:54:19;5.00;68.80
81311;DHT22;70779;52.506;5.492;2024-02-28T00:56:47;5.00;68.90
81311;DHT22;70779;52.506;5.492;2024-02-28T00:59:13;4.90;69.20
81311;DHT22;70779;52.506;5.492;2024-02-28T01:01:40;4.90;69.20
81311;DHT22;70779;52.506;5.492;2024-02-28T01:04:06;4.80;69.30
81311;DHT22;70779;52.506;5.492;2024-02-28T01:06:32;4.70;69.20
81311;DHT22;70779;52.506;5.492;2024-02-28T01:08:58;4.70;69.30
81311;DHT22;70779;52.506;5.492;2024-02-28T01:11:24;4.70;69.30
81311;DHT22;70779;52.506;5.492;2024-02-28T01:13:51;4.60;69.50
81311;DHT22;70779;52.506;5.492;2024-02-28T01:16:17;4.50;69.40
81311;DHT22;70779;52.506;5.492;2024-02-28T01:18:43;4.50;69.50
81311;DHT22;70779;52.506;5.492;2024-02-28T01:21:09;4.50;69.60
81311;DHT22;70779;52.506;5.492;2024-02-28T01:23:35;4.50;69.60
81311;DHT22;70779;52.506;5.492;2024-02-28T01:26:01;4.40;69.60
81311;DHT22;70779;52.506;5.492;2024-02-28T01:28:29;4.40;69.60
81311;DHT22;70779;52.506;5.492;2024-02-28T01:30:55;4.40;69.80
81311;DHT22;70779;52.506;5.492;2024-02-28T01:33:21;4.40;69.90
81311;DHT22;70779;52.506;5.492;2024-02-28T01:35:47;4.50;69.90
81311;DHT22;70779;52.506;5.492;2024-02-28T01:38:13;4.50;70.10
81311;DHT22;70779;52.506;5.492;2024-02-28T01:40:44;4.50;70.20
81311;DHT22;70779;52.506;5.492;2024-02-28T01:43:10;4.50;70.20
81311;DHT22;70779;52.506;5.492;2024-02-28T01:45:36;4.60;70.30
81311;DHT22;70779;52.506;5.492;2024-02-28T01:48:03;4.70;70.40
81311;DHT22;70779;52.506;5.492;2024-02-28T01:50:35;4.70;70.30
81311;DHT22;70779;52.506;5.492;2024-02-28T01:53:03;4.90;70.30
81311;DHT22;70779;52.506;5.492;2024-02-28T01:55:30;5.00;70.20
81311;DHT22;70779;52.506;5.492;2024-02-28T01:57:56;5.00;70.00
81311;DHT22;70779;52.506;5.492;2024-02-28T02:00:22;5.10;69.90
81311;DHT22;70779;52.506;5.492;2024-02-28T02:02:50;5.10;69.80
81311;DHT22;70779;52.506;5.492;2024-02-28T02:05:16;5.20;69.80
81311;DHT22;70779;52.506;5.492;2024-02-28T02:07:49;5.30;69.90
81311;DHT22;70779;52.506;5.492;2024-02-28T02:10:16;5.30;69.80
81311;DHT22;70779;52.506;5.492;2024-02-28T02:12:42;5.30;69.70
81311;DHT22;70779;52.506;5.492;2024-02-28T02:15:09;5.30;69.60
81311;DHT22;70779;52.506;5.492;2024-02-28T02:17:35;5.30;69.50
81311;DHT22;70779;52.506;5.492;2024-02-28T02:20:01;5.30;69.50
81311;DHT22;70779;52.506;5.492;2024-02-28T02:22:34;5.30;69.50
81311;DHT22;70779;52.506;5.492;2024-02-28T02:25:03;5.30;69.50
81311;DHT22;70779;52.506;5.492;2024-02-28T02:27:29;5.30;69.50
81311;DHT22;70779;52.506;5.492;2024-02-28T02:29:55;5.40;69.60
81311;DHT22;70779;52.506;5.492;2024-02-28T02:32:21;5.40;69.60
81311;DHT22;70779;52.506;5.492;2024-02-28T02:34:47;5.50;69.70
81311;DHT22;70779;52.506;5.492;2024-02-28T02:37:13;5.50;69.70
81311;DHT22;70779;52.506;5.492;2024-02-28T02:39:39;5.50;69.60
81311;DHT22;70779;52.506;5.492;2024-02-28T02:42:06;5.60;69.70
81311;DHT22;70779;52.506;5.492;2024-02-28T02:44:32;5.60;69.70
81311;DHT22;70779;52.506;5.492;2024-02-28T02:46:58;5.70;69.60
81311;DHT22;70779;52.506;5.492;2024-02-28T02:49:24;5.80;69.50
81311;DHT22;70779;52.506;5.492;2024-02-28T02:51:50;5.80;69.40
81311;DHT22;70779;52.506;5.492;2024-02-28T02:54:16;5.80;69.40
81311;DHT22;70779;52.506;5.492;2024-02-28T02:56:42;5.90;69.20
81311;DHT22;70779;52.506;5.492;2024-02-28T02:59:10;5.90;69.20
81311;DHT22;70779;52.506;5.492;2024-02-28T03:01:37;5.90;69.20
81311;DHT22;70779;52.506;5.492;2024-02-28T03:04:03;6.00;69.10
81311;DHT22;70779;52.506;5.492;2024-02-28T03:06:29;6.00;69.00
81311;DHT22;70779;52.506;5.492;2024-02-28T03:08:55;6.00;69.00
81311;DHT22;70779;52.506;5.492;2024-02-28T03:11:21;6.00;69.00
81311;DHT22;70779;52.506;5.492;2024-02-28T03:13:47;6.00;68.90
81311;DHT22;70779;52.506;5.492;2024-02-28T03:16:13;6.10;68.80
81311;DHT22;70779;52.506;5.492;2024-02-28T03:18:39;6.10;68.70
81311;DHT22;70779;52.506;5.492;2024-02-28T03:21:05;6.10;68.70
81311;DHT22;70779;52.506;5.492;2024-02-28T03:23:32;6.10;68.60
81311;DHT22;70779;52.506;5.492;2024-02-28T03:25:58;6.10;68.50
81311;DHT22;70779;52.506;5.492;2024-02-28T03:28:25;6.10;68.60
81311;DHT22;70779;52.506;5.492;2024-02-28T03:30:51;6.10;68.60
81311;DHT22;70779;52.506;5.492;2024-02-28T03:33:16;6.10;68.60
81311;DHT22;70779;52.506;5.492;2024-02-28T03:35:43;6.00;68.60
81311;DHT22;70779;52.506;5.492;2024-02-28T03:38:09;6.10;68.50
81311;DHT22;70779;52.506;5.492;2024-02-28T03:40:35;6.00;68.50
81311;DHT22;70779;52.506;5.492;2024-02-28T03:43:01;6.00;68.50
81311;DHT22;70779;52.506;5.492;2024-02-28T03:45:27;6.00;68.60
81311;DHT22;70779;52.506;5.492;2024-02-28T03:47:54;6.00;68.60
81311;DHT22;70779;52.506;5.492;2024-02-28T03:50:20;6.10;68.70
81311;DHT22;70779;52.506;5.492;2024-02-28T03:52:46;6.10;68.60
81311;DHT22;70779;52.506;5.492;2024-02-28T03:55:12;6.20;68.60
81311;DHT22;70779;52.506;5.492;2024-02-28T03:57:38;6.20;68.50
81311;DHT22;70779;52.506;5.492;2024-02-28T04:00:04;6.20;68.40
81311;DHT22;70779;52.506;5.492;2024-02-28T04:02:38;6.30;68.50
81311;DHT22;70779;52.506;5.492;2024-02-28T04:05:04;6.30;68.40
81311;DHT22;70779;52.506;5.492;2024-02-28T04:07:30;6.30;68.40
81311;DHT22;70779;52.506;5.492;2024-02-28T04:09:56;6.30;68.40
81311;DHT22;70779;52.506;5.492;2024-02-28T04:12:22;6.40;68.40
81311;DHT22;70779;52.506;5.492;2024-02-28T04:14:49;6.40;68.50
81311;DHT22;70779;52.506;5.492;2024-02-28T04:17:15;6.50;68.40
81311;DHT22;70779;52.506;5.492;2024-02-28T04:19:41;6.50;68.40
81311;DHT22;70779;52.506;5.492;2024-02-28T04:22:07;6.60;68.30
81311;DHT22;70779;52.506;5.492;2024-02-28T04:24:33;6.60;68.30
81311;DHT22;70779;52.506;5.492;2024-02-28T04:26:59;6.70;68.30
81311;DHT22;70779;52.506;5.492;2024-02-28T04:29:25;6.70;68.20
81311;DHT22;70779;52.506;5.492;2024-02-28T04:31:51;6.80;68.20
81311;DHT22;70779;52.506;5.492;2024-02-28T04:34:18;6.80;68.10
81311;DHT22;70779;52.506;5.492;2024-02-28T04:36:44;6.90;68.00
81311;DHT22;70779;52.506;5.492;2024-02-28T04:39:10;7.00;68.00
81311;DHT22;70779;52.506;5.492;2024-02-28T04:41:36;7.00;67.90
81311;DHT22;70779;52.506;5.492;2024-02-28T04:44:02;7.00;67.90
81311;DHT22;70779;52.506;5.492;2024-02-28T04:46:28;7.10;67.80
81311;DHT22;70779;52.506;5.492;2024-02-28T04:48:54;7.10;67.80
81311;DHT22;70779;52.506;5.492;2024-02-28T04:51:20;7.20;67.80
81311;DHT22;70779;52.506;5.492;2024-02-28T04:53:47;7.20;67.70
81311;DHT22;70779;52.506;5.492;2024-02-28T04:56:13;7.20;67.70
81311;DHT22;70779;52.506;5.492;2024-02-28T04:58:39;7.20;67.60
81311;DHT22;70779;52.506;5.492;2024-02-28T05:01:05;7.30;67.60
81311;DHT22;70779;52.506;5.492;2024-02-28T05:03:31;7.30;67.60
81311;DHT22;70779;52.506;5.492;2024-02-28T05:05:57;7.40;67.50
81311;DHT22;70779;52.506;5.492;2024-02-28T05:08:24;7.40;67.50
81311;DHT22;70779;52.506;5.492;2024-02-28T05:10:50;7.40;67.40
81311;DHT22;70779;52.506;5.492;2024-02-28T05:13:17;7.40;67.40
81311;DHT22;70779;52.506;5.492;2024-02-28T05:15:43;7.40;67.40
81311;DHT22;70779;52.506;5.492;2024-02-28T05:18:09;7.50;67.40
81311;DHT22;70779;52.506;5.492;2024-02-28T05:20:35;7.50;67.40
81311;DHT22;70779;52.506;5.492;2024-02-28T05:23:01;7.50;67.40
81311;DHT22;70779;52.506;5.492;2024-02-28T05:25:27;7.50;67.30
81311;DHT22;70779;52.506;5.492;2024-02-28T05:27:53;7.50;67.40
81311;DHT22;70779;52.506;5.492;2024-02-28T05:30:19;7.50;67.30
81311;DHT22;70779;52.506;5.492;2024-02-28T05:32:46;7.50;67.30
81311;DHT22;70779;52.506;5.492;2024-02-28T05:35:12;7.50;67.30
81311;DHT22;70779;52.506;5.492;2024-02-28T05:37:40;7.50;67.30
81311;DHT22;70779;52.506;5.492;2024-02-28T05:40:07;7.50;67.30
81311;DHT22;70779;52.506;5.492;2024-02-28T05:42:33;7.50;67.30
81311;DHT22;70779;52.506;5.492;2024-02-28T05:44:59;7.50;67.30
81311;DHT22;70779;52.506;5.492;2024-02-28T05:47:25;7.50;67.40
81311;DHT22;70779;52.506;5.492;2024-02-28T05:49:52;7.50;67.50
81311;DHT22;70779;52.506;5.492;2024-02-28T05:52:18;7.50;67.50
81311;DHT22;70779;52.506;5.492;2024-02-28T05:54:44;7.50;67.50
81311;DHT22;70779;52.506;5.492;2024-02-28T05:57:10;7.50;67.60
81311;DHT22;70779;52.506;5.492;2024-02-28T05:59:36;7.50;67.60
81311;DHT22;70779;52.506;5.492;2024-02-28T06:02:02;7.50;67.50
81311;DHT22;70779;52.506;5.492;2024-02-28T06:04:28;7.50;67.60
81311;DHT22;70779;52.506;5.492;2024-02-28T06:06:54;7.50;67.60
81311;DHT22;70779;52.506;5.492;2024-02-28T06:09:20;7.50;67.60
81311;DHT22;70779;52.506;5.492;2024-02-28T06:11:46;7.50;67.70
81311;DHT22;70779;52.506;5.492;2024-02-28T06:14:12;7.60;67.70
81311;DHT22;70779;52.506;5.492;2024-02-28T06:16:39;7.60;67.60
81311;DHT22;70779;52.506;5.492;2024-02-28T06:19:05;7.60;67.60
81311;DHT22;70779;52.506;5.492;2024-02-28T06:21:31;7.60;67.70
81311;DHT22;70779;52.506;5.492;2024-02-28T06:23:57;7.60;67.70
81311;DHT22;70779;52.506;5.492;2024-02-28T06:26:23;7.70;67.70
81311;DHT22;70779;52.506;5.492;2024-02-28T06:28:49;7.70;67.70
81311;DHT22;70779;52.506;5.492;2024-02-28T06:31:17;7.80;67.70
81311;DHT22;70779;52.506;5.492;2024-02-28T06:33:44;7.80;67.70
81311;DHT22;70779;52.506;5.492;2024-02-28T06:36:10;7.80;67.60
81311;DHT22;70779;52.506;5.492;2024-02-28T06:38:36;7.80;67.60
81311;DHT22;70779;52.506;5.492;2024-02-28T06:41:05;7.80;67.60
81311;DHT22;70779;52.506;5.492;2024-02-28T06:43:34;7.90;67.70
81311;DHT22;70779;52.506;5.492;2024-02-28T06:46:01;8.00;67.60
81311;DHT22;70779;52.506;5.492;2024-02-28T06:48:28;8.00;67.60
81311;DHT22;70779;52.506;5.492;2024-02-28T06:50:55;8.00;67.60
81311;DHT22;70779;52.506;5.492;2024-02-28T06:53:21;8.00;67.60
81311;DHT22;70779;52.506;5.492;2024-02-28T06:55:47;8.00;67.60
81311;DHT22;70779;52.506;5.492;2024-02-28T06:58:15;8.00;67.70
81311;DHT22;70779;52.506;5.492;2024-02-28T07:00:41;8.00;67.70
81311;DHT22;70779;52.506;5.492;2024-02-28T07:03:07;8.10;67.70
81311;DHT22;70779;52.506;5.492;2024-02-28T07:05:33;8.10;67.60
81311;DHT22;70779;52.506;5.492;2024-02-28T07:08:00;8.10;67.60
81311;DHT22;70779;52.506;5.492;2024-02-28T07:10:26;8.10;67.60
81311;DHT22;70779;52.506;5.492;2024-02-28T07:12:52;8.20;67.60
81311;DHT22;70779;52.506;5.492;2024-02-28T07:15:18;8.20;67.60
81311;DHT22;70779;52.506;5.492;2024-02-28T07:17:46;8.20;67.50
81311;DHT22;70779;52.506;5.492;2024-02-28T07:20:12;8.20;67.60
81311;DHT22;70779;52.506;5.492;2024-02-28T07:22:38;8.30;67.60
81311;DHT22;70779;52.506;5.492;2024-02-28T07:25:05;8.30;67.50
81311;DHT22;70779;52.506;5.492;2024-02-28T07:27:33;8.40;67.50
81311;DHT22;70779;52.506;5.492;2024-02-28T07:29:59;8.40;67.50
81311;DHT22;70779;52.506;5.492;2024-02-28T07:32:25;8.40;67.50
81311;DHT22;70779;52.506;5.492;2024-02-28T07:34:51;8.40;67.50
81311;DHT22;70779;52.506;5.492;2024-02-28T07:37:17;8.50;67.50
81311;DHT22;70779;52.506;5.492;2024-02-28T07:39:43;8.50;67.50
81311;DHT22;70779;52.506;5.492;2024-02-28T07:42:09;8.50;67.40
81311;DHT22;70779;52.506;5.492;2024-02-28T07:44:35;8.50;67.40
81311;DHT22;70779;52.506;5.492;2024-02-28T07:47:02;8.50;67.50
81311;DHT22;70779;52.506;5.492;2024-02-28T07:49:28;8.50;67.50
81311;DHT22;70779;52.506;5.492;2024-02-28T07:51:54;8.50;67.50
81311;DHT22;70779;52.506;5.492;2024-02-28T07:54:20;8.60;67.70
81311;DHT22;70779;52.506;5.492;2024-02-28T07:56:46;8.60;67.60
81311;DHT22;70779;52.506;5.492;2024-02-28T07:59:13;8.60;67.70
81311;DHT22;70779;52.506;5.492;2024-02-28T08:01:39;8.60;67.70
81311;DHT22;70779;52.506;5.492;2024-02-28T08:04:05;8.60;67.80
81311;DHT22;70779;52.506;5.492;2024-02-28T08:06:31;8.60;67.80
81311;DHT22;70779;52.506;5.492;2024-02-28T08:08:59;8.60;67.80
81311;DHT22;70779;52.506;5.492;2024-02-28T08:11:25;8.60;67.60
81311;DHT22;70779;52.506;5.492;2024-02-28T08:13:51;8.60;67.60
81311;DHT22;70779;52.506;5.492;2024-02-28T08:16:18;8.60;67.70
81311;DHT22;70779;52.506;5.492;2024-02-28T08:18:44;8.60;67.80
81311;DHT22;70779;52.506;5.492;2024-02-28T08:21:10;8.50;67.90
81311;DHT22;70779;52.506;5.492;2024-02-28T08:23:36;8.50;68.00
81311;DHT22;70779;52.506;5.492;2024-02-28T08:26:02;8.60;68.10
81311;DHT22;70779;52.506;5.492;2024-02-28T08:28:29;8.60;68.30
81311;DHT22;70779;52.506;5.492;2024-02-28T08:30:55;8.60;68.30
81311;DHT22;70779;52.506;5.492;2024-02-28T08:33:21;8.80;68.30
81311;DHT22;70779;52.506;5.492;2024-02-28T08:35:47;8.90;68.20
81311;DHT22;70779;52.506;5.492;2024-02-28T08:38:16;9.00;68.00
81311;DHT22;70779;52.506;5.492;2024-02-28T08:40:42;9.00;67.80
81311;DHT22;70779;52.506;5.492;2024-02-28T08:43:08;9.20;67.70
81311;DHT22;70779;52.506;5.492;2024-02-28T08:45:34;9.20;67.50
81311;DHT22;70779;52.506;5.492;2024-02-28T08:48:01;9.20;67.30
81311;DHT22;70779;52.506;5.492;2024-02-28T08:50:27;9.20;67.10
81311;DHT22;70779;52.506;5.492;2024-02-28T08:52:54;9.20;67.10
81311;DHT22;70779;52.506;5.492;2024-02-28T08:55:21;9.20;67.20
81311;DHT22;70779;52.506;5.492;2024-02-28T08:57:49;9.20;67.00
81311;DHT22;70779;52.506;5.492;2024-02-28T09:00:15;9.20;67.10
81311;DHT22;70779;52.506;5.492;2024-02-28T09:02:41;9.20;67.20
81311;DHT22;70779;52.506;5.492;2024-02-28T09:05:08;9.20;67.50
81311;DHT22;70779;52.506;5.492;2024-02-28T09:07:35;9.20;67.50
81311;DHT22;70779;52.506;5.492;2024-02-28T09:10:04;9.20;67.50
81311;DHT22;70779;52.506;5.492;2024-02-28T09:12:32;9.20;67.70
81311;DHT22;70779;52.506;5.492;2024-02-28T09:14:58;9.30;67.90
81311;DHT22;70779;52.506;5.492;2024-02-28T09:17:24;9.40;68.00
81311;DHT22;70779;52.506;5.492;2024-02-28T09:19:50;9.50;68.00
81311;DHT22;70779;52.506;5.492;2024-02-28T09:22:17;9.70;68.20
81311;DHT22;70779;52.506;5.492;2024-02-28T09:24:44;10.00;67.90
81311;DHT22;70779;52.506;5.492;2024-02-28T09:29:36;11.30;66.20
81311;DHT22;70779;52.506;5.492;2024-02-28T09:32:02;11.20;66.40
81311;DHT22;70779;52.506;5.492;2024-02-28T09:34:28;11.60;65.10
81311;DHT22;70779;52.506;5.492;2024-02-28T09:36:54;11.90;64.70
81311;DHT22;70779;52.506;5.492;2024-02-28T09:39:20;12.00;63.70
81311;DHT22;70779;52.506;5.492;2024-02-28T09:41:48;12.10;63.70
81311;DHT22;70779;52.506;5.492;2024-02-28T09:44:16;12.00;63.50
81311;DHT22;70779;52.506;5.492;2024-02-28T09:46:43;12.00;63.20
81311;DHT22;70779;52.506;5.492;2024-02-28T09:49:10;11.90;63.20
81311;DHT22;70779;52.506;5.492;2024-02-28T09:51:36;11.90;63.20
81311;DHT22;70779;52.506;5.492;2024-02-28T09:54:06;11.80;63.40
81311;DHT22;70779;52.506;5.492;2024-02-28T09:56:33;11.80;63.70
81311;DHT22;70779;52.506;5.492;2024-02-28T09:58:59;11.80;63.90
81311;DHT22;70779;52.506;5.492;2024-02-28T10:01:26;11.90;63.70
81311;DHT22;70779;52.506;5.492;2024-02-28T10:03:53;11.90;63.40
81311;DHT22;70779;52.506;5.492;2024-02-28T10:06:20;11.90;63.20
81311;DHT22;70779;52.506;5.492;2024-02-28T10:08:46;11.90;63.50
81311;DHT22;70779;52.506;5.492;2024-02-28T10:11:20;12.00;63.50
81311;DHT22;70779;52.506;5.492;2024-02-28T10:13:47;12.20;63.20
81311;DHT22;70779;52.506;5.492;2024-02-28T10:16:13;12.50;63.20
81311;DHT22;70779;52.506;5.492;2024-02-28T10:18:43;12.70;62.80
81311;DHT22;70779;52.506;5.492;2024-02-28T10:21:12;12.80;62.00
81311;DHT22;70779;52.506;5.492;2024-02-28T10:23:41;12.80;61.60
81311;DHT22;70779;52.506;5.492;2024-02-28T10:26:11;12.70;61.60
81311;DHT22;70779;52.506;5.492;2024-02-28T10:28:38;12.50;61.90
81311;DHT22;70779;52.506;5.492;2024-02-28T10:31:09;12.50;61.90
81311;DHT22;70779;52.506;5.492;2024-02-28T10:33:36;12.50;62.20
81311;DHT22;70779;52.506;5.492;2024-02-28T10:36:05;12.50;62.20
81311;DHT22;70779;52.506;5.492;2024-02-28T10:38:32;12.50;62.40
81311;DHT22;70779;52.506;5.492;2024-02-28T10:41:05;12.50;62.60
81311;DHT22;70779;52.506;5.492;2024-02-28T10:43:31;12.50;62.60
81311;DHT22;70779;52.506;5.492;2024-02-28T10:46:01;12.70;62.20
81311;DHT22;70779;52.506;5.492;2024-02-28T10:48:27;12.70;62.10
81311;DHT22;70779;52.506;5.492;2024-02-28T10:50:54;12.80;62.20
81311;DHT22;70779;52.506;5.492;2024-02-28T10:53:22;12.90;62.20
81311;DHT22;70779;52.506;5.492;2024-02-28T10:55:52;13.00;62.00
81311;DHT22;70779;52.506;5.492;2024-02-28T10:58:22;13.00;61.80
81311;DHT22;70779;52.506;5.492;2024-02-28T11:00:50;13.00;61.90
81311;DHT22;70779;52.506;5.492;2024-02-28T11:03:17;12.90;61.90
81311;DHT22;70779;52.506;5.492;2024-02-28T11:05:44;12.90;61.90
81311;DHT22;70779;52.506;5.492;2024-02-28T11:08:21;12.80;62.00
81311;DHT22;70779;52.506;5.492;2024-02-28T11:10:57;12.80;62.10
81311;DHT22;70779;52.506;5.492;2024-02-28T11:13:25;12.80;62.30
81311;DHT22;70779;52.506;5.492;2024-02-28T11:15:52;12.80;62.20
81311;DHT22;70779;52.506;5.492;2024-02-28T11:18:19;12.90;61.90
81311;DHT22;70779;52.506;5.492;2024-02-28T11:20:45;12.90;61.90
81311;DHT22;70779;52.506;5.492;2024-02-28T11:23:15;12.90;62.10
81311;DHT22;70779;52.506;5.492;2024-02-28T11:25:42;13.00;61.90
81311;DHT22;70779;52.506;5.492;2024-02-28T11:28:09;13.10;61.80
81311;DHT22;70779;52.506;5.492;2024-02-28T11:30:35;13.10;61.60
81311;DHT22;70779;52.506;5.492;2024-02-28T11:33:02;13.20;61.40
81311;DHT22;70779;52.506;5.492;2024-02-28T11:35:28;13.30;61.20
81311;DHT22;70779;52.506;5.492;2024-02-28T11:37:55;13.40;61.30
81311;DHT22;70779;52.506;5.492;2024-02-28T11:40:25;13.50;61.00
81311;DHT22;70779;52.506;5.492;2024-02-28T11:42:54;13.50;60.80
81311;DHT22;70779;52.506;5.492;2024-02-28T11:45:21;13.60;60.90
81311;DHT22;70779;52.506;5.492;2024-02-28T11:47:47;13.60;60.90
81311;DHT22;70779;52.506;5.492;2024-02-28T11:50:13;13.70;60.80
81311;DHT22;70779;52.506;5.492;2024-02-28T11:52:45;13.80;60.80
81311;DHT22;70779;52.506;5.492;2024-02-28T11:55:11;13.90;60.50
81311;DHT22;70779;52.506;5.492;2024-02-28T11:57:37;13.90;60.60
81311;DHT22;70779;52.506;5.492;2024-02-28T12:00:08;13.90;60.70
81311;DHT22;70779;52.506;5.492;2024-02-28T12:02:43;14.00;60.40
81311;DHT22;70779;52.506;5.492;2024-02-28T12:05:09;14.00;60.30
81311;DHT22;70779;52.506;5.492;2024-02-28T12:07:36;14.00;60.50
81311;DHT22;70779;52.506;5.492;2024-02-28T12:10:02;14.00;60.50
81311;DHT22;70779;52.506;5.492;2024-02-28T12:12:29;14.10;60.10
81311;DHT22;70779;52.506;5.492;2024-02-28T12:15:01;14.10;59.70
81311;DHT22;70779;52.506;5.492;2024-02-28T12:17:31;14.00;60.10
81311;DHT22;70779;52.506;5.492;2024-02-28T12:20:00;14.10;60.20
81311;DHT22;70779;52.506;5.492;2024-02-28T12:22:27;14.10;59.90
81311;DHT22;70779;52.506;5.492;2024-02-28T12:24:53;14.10;59.80
81311;DHT22;70779;52.506;5.492;2024-02-28T12:27:19;14.10;59.70
81311;DHT22;70779;52.506;5.492;2024-02-28T12:29:46;14.00;59.90
81311;DHT22;70779;52.506;5.492;2024-02-28T12:32:12;14.10;60.00
81311;DHT22;70779;52.506;5.492;2024-02-28T12:34:38;14.10;60.10
81311;DHT22;70779;52.506;5.492;2024-02-28T12:37:04;14.10;60.00
81311;DHT22;70779;52.506;5.492;2024-02-28T12:39:31;14.10;60.00
81311;DHT22;70779;52.506;5.492;2024-02-28T12:42:00;14.10;60.00
81311;DHT22;70779;52.506;5.492;2024-02-28T12:44:26;14.10;60.00
81311;DHT22;70779;52.506;5.492;2024-02-28T12:46:52;14.10;60.00
81311;DHT22;70779;52.506;5.492;2024-02-28T12:49:19;14.00;59.70
81311;DHT22;70779;52.506;5.492;2024-02-28T12:51:45;14.00;59.80
81311;DHT22;70779;52.506;5.492;2024-02-28T12:54:12;14.00;59.90
81311;DHT22;70779;52.506;5.492;2024-02-28T12:56:42;13.90;60.00
81311;DHT22;70779;52.506;5.492;2024-02-28T12:59:11;13.90;60.10
81311;DHT22;70779;52.506;5.492;2024-02-28T13:01:38;13.90;60.10
81311;DHT22;70779;52.506;5.492;2024-02-28T13:04:04;13.90;60.10
81311;DHT22;70779;52.506;5.492;2024-02-28T13:06:30;13.90;60.10
81311;DHT22;70779;52.506;5.492;2024-02-28T13:08:57;14.00;60.20
81311;DHT22;70779;52.506;5.492;2024-02-28T13:11:24;14.00;60.00
81311;DHT22;70779;52.506;5.492;2024-02-28T13:13:51;14.10;59.90
81311;DHT22;70779;52.506;5.492;2024-02-28T13:16:21;14.10;60.00
81311;DHT22;70779;52.506;5.492;2024-02-28T13:18:48;14.20;59.60
81311;DHT22;70779;52.506;5.492;2024-02-28T13:21:14;14.20;59.50
81311;DHT22;70779;52.506;5.492;2024-02-28T13:23:40;14.20;59.30
81311;DHT22;70779;52.506;5.492;2024-02-28T13:26:07;14.20;59.30
81311;DHT22;70779;52.506;5.492;2024-02-28T13:28:33;14.20;59.30
81311;DHT22;70779;52.506;5.492;2024-02-28T13:31:02;14.20;59.50
81311;DHT22;70779;52.506;5.492;2024-02-28T13:33:28;14.30;59.30
81311;DHT22;70779;52.506;5.492;2024-02-28T13:35:54;14.30;59.40
81311;DHT22;70779;52.506;5.492;2024-02-28T13:38:21;14.30;59.30
81311;DHT22;70779;52.506;5.492;2024-02-28T13:40:48;14.30;59.40
81311;DHT22;70779;52.506;5.492;2024-02-28T13:43:14;14.40;59.30
81311;DHT22;70779;52.506;5.492;2024-02-28T13:45:46;14.50;59.30
81311;DHT22;70779;52.506;5.492;2024-02-28T13:48:20;14.50;59.20
81311;DHT22;70779;52.506;5.492;2024-02-28T13:50:48;14.60;58.70
81311;DHT22;70779;52.506;5.492;2024-02-28T13:53:14;14.60;58.80
81311;DHT22;70779;52.506;5.492;2024-02-28T13:55:41;14.50;58.60
81311;DHT22;70779;52.506;5.492;2024-02-28T13:58:10;14.50;58.70
81311;DHT22;70779;52.506;5.492;2024-02-28T14:00:37;14.40;58.80
81311;DHT22;70779;52.506;5.492;2024-02-28T14:03:04;14.40;59.00
81311;DHT22;70779;52.506;5.492;2024-02-28T14:05:32;14.30;59.20
81311;DHT22;70779;52.506;5.492;2024-02-28T14:07:59;14.30;59.10
81311;DHT22;70779;52.506;5.492;2024-02-28T14:10:26;14.20;59.20
81311;DHT22;70779;52.506;5.492;2024-02-28T14:12:52;14.20;59.20
81311;DHT22;70779;52.506;5.492;2024-02-28T14:15:21;14.10;59.20
81311;DHT22;70779;52.506;5.492;2024-02-28T14:17:48;14.00;59.50
81311;DHT22;70779;52.506;5.492;2024-02-28T14:20:14;13.90;59.70
81311;DHT22;70779;52.506;5.492;2024-02-28T14:22:41;13.90;59.80
81311;DHT22;70779;52.506;5.492;2024-02-28T14:25:14;13.90;60.00
81311;DHT22;70779;52.506;5.492;2024-02-28T14:27:43;14.00;59.80
81311;DHT22;70779;52.506;5.492;2024-02-28T14:30:10;13.90;59.60
81311;DHT22;70779;52.506;5.492;2024-02-28T14:32:36;13.90;59.70
81311;DHT22;70779;52.506;5.492;2024-02-28T14:35:03;13.90;59.80
81311;DHT22;70779;52.506;5.492;2024-02-28T14:37:31;13.90;60.00
81311;DHT22;70779;52.506;5.492;2024-02-28T14:39:57;13.80;60.10
81311;DHT22;70779;52.506;5.492;2024-02-28T14:42:23;13.80;60.30
81311;DHT22;70779;52.506;5.492;2024-02-28T14:44:49;13.80;60.30
81311;DHT22;70779;52.506;5.492;2024-02-28T14:47:17;13.70;60.20
81311;DHT22;70779;52.506;5.492;2024-02-28T14:49:43;13.70;60.30
81311;DHT22;70779;52.506;5.492;2024-02-28T14:52:09;13.70;60.50
81311;DHT22;70779;52.506;5.492;2024-02-28T14:54:35;13.60;60.50
81311;DHT22;70779;52.506;5.492;2024-02-28T14:57:01;13.60;60.50
81311;DHT22;70779;52.506;5.492;2024-02-28T14:59:27;13.50;60.60
81311;DHT22;70779;52.506;5.492;2024-02-28T15:01:53;13.50;60.80
81311;DHT22;70779;52.506;5.492;2024-02-28T15:04:19;13.40;60.90
81311;DHT22;70779;52.506;5.492;2024-02-28T15:06:45;13.30;61.10
81311;DHT22;70779;52.506;5.492;2024-02-28T15:09:12;13.40;61.20
81311;DHT22;70779;52.506;5.492;2024-02-28T15:11:38;13.40;61.30
81311;DHT22;70779;52.506;5.492;2024-02-28T15:14:04;13.50;61.30
81311;DHT22;70779;52.506;5.492;2024-02-28T15:16:31;13.40;61.20
81311;DHT22;70779;52.506;5.492;2024-02-28T15:18:57;13.50;61.20
81311;DHT22;70779;52.506;5.492;2024-02-28T15:21:23;13.40;61.20
81311;DHT22;70779;52.506;5.492;2024-02-28T15:23:49;13.40;61.40
81311;DHT22;70779;52.506;5.492;2024-02-28T15:26:15;13.30;61.30
81311;DHT22;70779;52.506;5.492;2024-02-28T15:28:42;13.30;61.20
81311;DHT22;70779;52.506;5.492;2024-02-28T15:31:08;13.10;61.40
81311;DHT22;70779;52.506;5.492;2024-02-28T15:33:34;13.10;61.50
81311;DHT22;70779;52.506;5.492;2024-02-28T15:36:00;13.00;61.60
81311;DHT22;70779;52.506;5.492;2024-02-28T15:38:29;13.00;61.80